sensor_id;sensor_type;location;lat;lon;timestamp;temperature;humidity
5806;DHT22;2929;50.810;8.342;2023-03-03T01:42:29;-0.40;99.90
5806;DHT22;2929;50.810;8.342;2023-03-03T01:45:23;-0.60;99.90
5806;DHT22;2929;50.810;8.342;2023-03-03T01:47:58;-0.50;99.90
5806;DHT22;2929;50.810;8.342;2023-03-03T01:50:35;-0.50;99.90
5806;DHT22;2929;50.810;8.342;2023-03-03T01:53:04;-0.50;99.90
5806;DHT22;2929;50.810;8.342;2023-03-03T01:55:35;-0.50;99.90
5806;DHT22;2929;50.810;8.342;2023-03-03T01:58:07;-0.60;99.90
5806;DHT22;2929;50.810;8.342;2023-03-03T02:00:38;-0.70;99.90
5806;DHT22;2929;50.810;8.342;2023-03-03T02:03:08;-0.90;99.90
5806;DHT22;2929;50.810;8.342;2023-03-03T02:05:35;-0.90;99.90
5806;DHT22;2929;50.810;8.342;2023-03-03T02:08:03;-0.90;99.90
5806;DHT22;2929;50.810;8.342;2023-03-03T02:10:34;-0.90;99.90
5806;DHT22;2929;50.810;8.342;2023-03-03T02:13:01;-0.90;99.90
5806;DHT22;2929;50.810;8.342;2023-03-03T02:15:30;-1.00;99.90
5806;DHT22;2929;50.810;8.342;2023-03-03T02:18:01;-1.00;99.90
5806;DHT22;2929;50.810;8.342;2023-03-03T02:20:37;-1.00;99.90
5806;DHT22;2929;50.810;8.342;2023-03-03T02:23:12;-0.90;99.90
5806;DHT22;2929;50.810;8.342;2023-03-03T02:25:49;-0.90;99.90
5806;DHT22;2929;50.810;8.342;2023-03-03T02:28:19;-0.80;99.90
5806;DHT22;2929;50.810;8.342;2023-03-03T02:30:47;-0.70;99.90
5806;DHT22;2929;50.810;8.342;2023-03-03T02:33:14;-0.80;99.90
5806;DHT22;2929;50.810;8.342;2023-03-03T02:35:42;-0.90;99.90
5806;DHT22;2929;50.810;8.342;2023-03-03T02:38:19;-0.90;99.90
5806;DHT22;2929;50.810;8.342;2023-03-03T02:40:56;-1.00;99.90
5806;DHT22;2929;50.810;8.342;2023-03-03T02:43:31;-1.00;99.90
5806;DHT22;2929;50.810;8.342;2023-03-03T02:46:00;-1.00;99.90
5806;DHT22;2929;50.810;8.342;2023-03-03T02:48:27;-1.00;99.90
5806;DHT22;2929;50.810;8.342;2023-03-03T02:50:54;-1.10;99.90
5806;DHT22;2929;50.810;8.342;2023-03-03T02:53:21;-1.20;99.90
5806;DHT22;2929;50.810;8.342;2023-03-03T02:55:48;-1.20;99.90
5806;DHT22;2929;50.810;8.342;2023-03-03T02:58:15;-1.20;99.90
5806;DHT22;2929;50.810;8.342;2023-03-03T03:00:44;-1.20;99.90
5806;DHT22;2929;50.810;8.342;2023-03-03T03:03:14;-1.30;99.90
5806;DHT22;2929;50.810;8.342;2023-03-03T03:05:41;-1.20;99.90
5806;DHT22;2929;50.810;8.342;2023-03-03T03:08:09;-1.20;99.90
5806;DHT22;2929;50.810;8.342;2023-03-03T03:10:36;-1.20;99.90
5806;DHT22;2929;50.810;8.342;2023-03-03T03:13:04;-1.20;99.90
5806;DHT22;2929;50.810;8.342;2023-03-03T03:15:32;-1.20;99.90
5806;DHT22;2929;50.810;8.342;2023-03-03T03:18:02;-1.30;99.90
5806;DHT22;2929;50.810;8.342;2023-03-03T03:20:30;-1.30;99.90
5806;DHT22;2929;50.810;8.342;2023-03-03T03:22:57;-1.40;99.90
5806;DHT22;2929;50.810;8.342;2023-03-03T03:25:24;-1.30;99.90
5806;DHT22;2929;50.810;8.342;2023-03-03T03:27:52;-1.40;99.90
5806;DHT22;2929;50.810;8.342;2023-03-03T03:30:19;-1.40;99.90
5806;DHT22;2929;50.810;8.342;2023-03-03T03:32:47;-1.50;99.90
5806;DHT22;2929;50.810;8.342;2023-03-03T03:35:16;-1.60;99.90
5806;DHT22;2929;50.810;8.342;2023-03-03T03:37:43;-1.60;99.90
5806;DHT22;2929;50.810;8.342;2023-03-03T03:40:11;-1.60;99.90
5806;DHT22;2929;50.810;8.342;2023-03-03T03:42:39;-1.50;99.90
5806;DHT22;2929;50.810;8.342;2023-03-03T03:45:08;-1.50;99.90
5806;DHT22;2929;50.810;8.342;2023-03-03T03:47:35;-1.50;99.90
5806;DHT22;2929;50.810;8.342;2023-03-03T03:50:03;-1.40;99.90
5806;DHT22;2929;50.810;8.342;2023-03-03T03:52:32;-1.40;99.90
5806;DHT22;2929;50.810;8.342;2023-03-03T03:54:59;-1.40;99.90
5806;DHT22;2929;50.810;8.342;2023-03-03T03:57:26;-1.40;99.90
5806;DHT22;2929;50.810;8.342;2023-03-03T03:59:53;-1.50;99.90
5806;DHT22;2929;50.810;8.342;2023-03-03T04:02:20;-1.50;99.90
5806;DHT22;2929;50.810;8.342;2023-03-03T04:04:47;-1.60;99.90
5806;DHT22;2929;50.810;8.342;2023-03-03T04:07:14;-1.60;99.90
5806;DHT22;2929;50.810;8.342;2023-03-03T04:09:43;-1.70;99.90
5806;DHT22;2929;50.810;8.342;2023-03-03T04:12:10;-1.70;99.90
5806;DHT22;2929;50.810;8.342;2023-03-03T04:14:37;-1.80;99.90
5806;DHT22;2929;50.810;8.342;2023-03-03T04:17:04;-1.90;99.90
5806;DHT22;2929;50.810;8.342;2023-03-03T04:19:31;-2.10;99.90
5806;DHT22;2929;50.810;8.342;2023-03-03T04:21:58;-2.10;99.90
5806;DHT22;2929;50.810;8.342;2023-03-03T04:24:25;-2.10;99.90
5806;DHT22;2929;50.810;8.342;2023-03-03T04:26:54;-2.20;99.90
5806;DHT22;2929;50.810;8.342;2023-03-03T04:29:21;-2.20;99.90
5806;DHT22;2929;50.810;8.342;2023-03-03T04:31:48;-2.20;99.90
5806;DHT22;2929;50.810;8.342;2023-03-03T04:34:15;-2.20;99.90
5806;DHT22;2929;50.810;8.342;2023-03-03T04:36:43;-2.20;99.90
5806;DHT22;2929;50.810;8.342;2023-03-03T04:39:10;-2.20;99.90
5806;DHT22;2929;50.810;8.342;2023-03-03T04:41:37;-2.20;99.90
5806;DHT22;2929;50.810;8.342;2023-03-03T04:44:06;-2.20;99.90
5806;DHT22;2929;50.810;8.342;2023-03-03T04:46:33;-2.30;99.90
5806;DHT22;2929;50.810;8.342;2023-03-03T04:49:00;-2.30;99.90
5806;DHT22;2929;50.810;8.342;2023-03-03T04:51:28;-2.40;99.90
5806;DHT22;2929;50.810;8.342;2023-03-03T04:53:55;-2.40;99.90
5806;DHT22;2929;50.810;8.342;2023-03-03T04:56:22;-2.40;99.90
5806;DHT22;2929;50.810;8.342;2023-03-03T04:58:49;-2.60;99.90
5806;DHT22;2929;50.810;8.342;2023-03-03T05:01:18;-2.60;99.90
5806;DHT22;2929;50.810;8.342;2023-03-03T05:03:45;-2.50;99.90
5806;DHT22;2929;50.810;8.342;2023-03-03T05:06:12;-2.50;99.90
5806;DHT22;2929;50.810;8.342;2023-03-03T05:08:39;-2.40;99.90
5806;DHT22;2929;50.810;8.342;2023-03-03T05:11:07;-2.50;99.90
5806;DHT22;2929;50.810;8.342;2023-03-03T05:13:34;-2.50;99.90
5806;DHT22;2929;50.810;8.342;2023-03-03T05:16:01;-2.50;99.90
5806;DHT22;2929;50.810;8.342;2023-03-03T05:18:30;-2.60;99.90
5806;DHT22;2929;50.810;8.342;2023-03-03T05:20:57;-2.60;99.90
5806;DHT22;2929;50.810;8.342;2023-03-03T05:23:25;-2.70;99.90
5806;DHT22;2929;50.810;8.342;2023-03-03T05:25:52;-2.80;99.90
5806;DHT22;2929;50.810;8.342;2023-03-03T05:28:19;-2.90;99.90
5806;DHT22;2929;50.810;8.342;2023-03-03T05:30:46;-3.00;99.90
5806;DHT22;2929;50.810;8.342;2023-03-03T05:33:15;-3.00;99.90
5806;DHT22;2929;50.810;8.342;2023-03-03T05:35:44;-2.90;99.90
5806;DHT22;2929;50.810;8.342;2023-03-03T05:38:11;-2.90;99.90
5806;DHT22;2929;50.810;8.342;2023-03-03T05:40:38;-2.80;99.90
5806;DHT22;2929;50.810;8.342;2023-03-03T05:43:05;-2.80;99.90
5806;DHT22;2929;50.810;8.342;2023-03-03T05:45:32;-2.80;99.90
5806;DHT22;2929;50.810;8.342;2023-03-03T05:48:00;-2.60;99.90
5806;DHT22;2929;50.810;8.342;2023-03-03T05:50:28;-2.50;99.90
5806;DHT22;2929;50.810;8.342;2023-03-03T05:52:57;-2.40;99.90
5806;DHT22;2929;50.810;8.342;2023-03-03T05:55:24;-2.30;99.90
5806;DHT22;2929;50.810;8.342;2023-03-03T05:57:51;-2.20;99.90
5806;DHT22;2929;50.810;8.342;2023-03-03T06:00:19;-2.10;99.90
5806;DHT22;2929;50.810;8.342;2023-03-03T06:02:46;-2.00;99.90
5806;DHT22;2929;50.810;8.342;2023-03-03T06:05:14;-2.00;99.90
5806;DHT22;2929;50.810;8.342;2023-03-03T06:07:41;-2.00;99.90
5806;DHT22;2929;50.810;8.342;2023-03-03T06:10:10;-2.00;99.90
5806;DHT22;2929;50.810;8.342;2023-03-03T06:12:39;-1.90;99.90
5806;DHT22;2929;50.810;8.342;2023-03-03T06:15:07;-1.80;99.90
5806;DHT22;2929;50.810;8.342;2023-03-03T06:17:35;-1.70;99.90
5806;DHT22;2929;50.810;8.342;2023-03-03T06:20:02;-1.60;99.90
5806;DHT22;2929;50.810;8.342;2023-03-03T06:22:30;-1.60;99.90
5806;DHT22;2929;50.810;8.342;2023-03-03T06:24:57;-1.60;99.90
5806;DHT22;2929;50.810;8.342;2023-03-03T06:27:25;-1.60;99.90
5806;DHT22;2929;50.810;8.342;2023-03-03T06:29:53;-1.50;99.90
5806;DHT22;2929;50.810;8.342;2023-03-03T06:32:20;-1.40;99.90
5806;DHT22;2929;50.810;8.342;2023-03-03T06:34:47;-1.30;99.90
5806;DHT22;2929;50.810;8.342;2023-03-03T06:37:14;-1.30;99.90
5806;DHT22;2929;50.810;8.342;2023-03-03T06:39:42;-1.30;99.90
5806;DHT22;2929;50.810;8.342;2023-03-03T06:42:09;-1.20;99.90
5806;DHT22;2929;50.810;8.342;2023-03-03T06:44:38;-1.20;99.90
5806;DHT22;2929;50.810;8.342;2023-03-03T06:47:05;-1.30;99.90
5806;DHT22;2929;50.810;8.342;2023-03-03T06:49:32;-1.30;99.90
5806;DHT22;2929;50.810;8.342;2023-03-03T06:52:04;-1.40;99.90
5806;DHT22;2929;50.810;8.342;2023-03-03T06:54:35;-1.40;99.90
5806;DHT22;2929;50.810;8.342;2023-03-03T06:57:19;-1.30;99.90
5806;DHT22;2929;50.810;8.342;2023-03-03T06:59:52;-1.30;99.90
5806;DHT22;2929;50.810;8.342;2023-03-03T07:02:21;-1.40;99.90
5806;DHT22;2929;50.810;8.342;2023-03-03T07:04:48;-1.40;99.90
5806;DHT22;2929;50.810;8.342;2023-03-03T07:07:17;-1.40;99.90
5806;DHT22;2929;50.810;8.342;2023-03-03T07:09:47;-1.50;99.90
5806;DHT22;2929;50.810;8.342;2023-03-03T07:12:16;-1.50;99.90
5806;DHT22;2929;50.810;8.342;2023-03-03T07:14:45;-1.40;99.90
5806;DHT22;2929;50.810;8.342;2023-03-03T07:17:16;-1.30;99.90
5806;DHT22;2929;50.810;8.342;2023-03-03T07:19:45;-1.30;99.90
5806;DHT22;2929;50.810;8.342;2023-03-03T07:22:15;-1.20;99.90
5806;DHT22;2929;50.810;8.342;2023-03-03T07:24:44;-1.20;99.90
5806;DHT22;2929;50.810;8.342;2023-03-03T07:27:16;-1.20;99.90
5806;DHT22;2929;50.810;8.342;2023-03-03T07:29:46;-1.20;99.90
5806;DHT22;2929;50.810;8.342;2023-03-03T07:32:35;-1.20;99.90
5806;DHT22;2929;50.810;8.342;2023-03-03T07:35:21;-1.10;99.90
5806;DHT22;2929;50.810;8.342;2023-03-03T07:37:50;-1.10;99.90
5806;DHT22;2929;50.810;8.342;2023-03-03T07:40:33;-1.10;99.90
5806;DHT22;2929;50.810;8.342;2023-03-03T07:43:12;-1.10;99.90
5806;DHT22;2929;50.810;8.342;2023-03-03T07:45:42;-1.00;99.90
5806;DHT22;2929;50.810;8.342;2023-03-03T07:48:18;-1.00;99.90
5806;DHT22;2929;50.810;8.342;2023-03-03T07:50:49;-1.00;99.90
5806;DHT22;2929;50.810;8.342;2023-03-03T07:53:25;-1.00;99.90
5806;DHT22;2929;50.810;8.342;2023-03-03T07:55:53;-0.90;99.90
5806;DHT22;2929;50.810;8.342;2023-03-03T07:58:22;-0.80;99.90
5806;DHT22;2929;50.810;8.342;2023-03-03T08:03:55;-0.70;99.90
5806;DHT22;2929;50.810;8.342;2023-03-03T08:06:41;-0.50;99.90
5806;DHT22;2929;50.810;8.342;2023-03-03T08:09:36;-0.60;99.90
5806;DHT22;2929;50.810;8.342;2023-03-03T08:15:17;-0.40;99.90
5806;DHT22;2929;50.810;8.342;2023-03-03T08:17:45;-0.40;99.90
5806;DHT22;2929;50.810;8.342;2023-03-03T08:20:48;-0.30;99.90
5806;DHT22;2929;50.810;8.342;2023-03-03T08:23:18;-0.30;99.90
5806;DHT22;2929;50.810;8.342;2023-03-03T08:25:46;-0.30;99.90
5806;DHT22;2929;50.810;8.342;2023-03-03T08:28:14;-0.20;99.90
5806;DHT22;2929;50.810;8.342;2023-03-03T08:30:42;-0.20;99.90
5806;DHT22;2929;50.810;8.342;2023-03-03T08:33:10;-0.10;99.90
5806;DHT22;2929;50.810;8.342;2023-03-03T08:35:37;-0.10;99.90
5806;DHT22;2929;50.810;8.342;2023-03-03T08:38:06;0.00;99.90
5806;DHT22;2929;50.810;8.342;2023-03-03T08:40:34;-0.10;99.90
5806;DHT22;2929;50.810;8.342;2023-03-03T08:43:01;-0.10;99.90
5806;DHT22;2929;50.810;8.342;2023-03-03T08:45:29;-0.20;99.90
5806;DHT22;2929;50.810;8.342;2023-03-03T08:47:56;-0.20;99.90
5806;DHT22;2929;50.810;8.342;2023-03-03T08:50:24;-0.30;99.90
5806;DHT22;2929;50.810;8.342;2023-03-03T08:52:51;-0.40;99.90
5806;DHT22;2929;50.810;8.342;2023-03-03T08:55:20;-0.40;99.90
5806;DHT22;2929;50.810;8.342;2023-03-03T08:57:47;-0.40;99.90
5806;DHT22;2929;50.810;8.342;2023-03-03T09:00:17;-0.40;99.90
5806;DHT22;2929;50.810;8.342;2023-03-03T09:02:45;-0.30;99.90
5806;DHT22;2929;50.810;8.342;2023-03-03T09:05:12;-0.20;99.90
5806;DHT22;2929;50.810;8.342;2023-03-03T09:07:40;-0.10;99.90
5806;DHT22;2929;50.810;8.342;2023-03-03T09:10:08;0.00;99.90
5806;DHT22;2929;50.810;8.342;2023-03-03T09:12:38;0.00;99.90
5806;DHT22;2929;50.810;8.342;2023-03-03T09:15:19;0.10;99.90
5806;DHT22;2929;50.810;8.342;2023-03-03T09:17:46;0.30;99.90
5806;DHT22;2929;50.810;8.342;2023-03-03T09:20:24;0.40;99.90
5806;DHT22;2929;50.810;8.342;2023-03-03T09:22:53;0.50;99.90
5806;DHT22;2929;50.810;8.342;2023-03-03T09:25:26;0.60;99.90
5806;DHT22;2929;50.810;8.342;2023-03-03T09:27:57;0.70;99.90
5806;DHT22;2929;50.810;8.342;2023-03-03T09:30:38;0.80;99.90
5806;DHT22;2929;50.810;8.342;2023-03-03T09:33:24;0.90;99.90
5806;DHT22;2929;50.810;8.342;2023-03-03T09:35:53;1.00;99.90
5806;DHT22;2929;50.810;8.342;2023-03-03T09:38:27;1.20;99.90
5806;DHT22;2929;50.810;8.342;2023-03-03T09:41:14;1.30;99.90
5806;DHT22;2929;50.810;8.342;2023-03-03T09:43:51;1.60;99.90
5806;DHT22;2929;50.810;8.342;2023-03-03T09:46:25;1.70;99.90
5806;DHT22;2929;50.810;8.342;2023-03-03T09:49:06;1.50;99.90
5806;DHT22;2929;50.810;8.342;2023-03-03T09:51:52;1.50;99.90
5806;DHT22;2929;50.810;8.342;2023-03-03T09:54:47;1.40;99.90
5806;DHT22;2929;50.810;8.342;2023-03-03T09:57:21;1.30;99.90
5806;DHT22;2929;50.810;8.342;2023-03-03T10:02:56;1.30;99.90
5806;DHT22;2929;50.810;8.342;2023-03-03T10:05:37;1.50;99.90
5806;DHT22;2929;50.810;8.342;2023-03-03T10:08:31;1.60;99.90
5806;DHT22;2929;50.810;8.342;2023-03-03T10:11:15;1.70;99.90
5806;DHT22;2929;50.810;8.342;2023-03-03T10:13:59;1.70;99.90
5806;DHT22;2929;50.810;8.342;2023-03-03T10:16:47;1.80;99.90
5806;DHT22;2929;50.810;8.342;2023-03-03T10:19:31;1.90;99.90
5806;DHT22;2929;50.810;8.342;2023-03-03T10:22:19;2.00;99.90
5806;DHT22;2929;50.810;8.342;2023-03-03T10:25:01;2.20;99.90
5806;DHT22;2929;50.810;8.342;2023-03-03T10:27:53;2.50;99.90
5806;DHT22;2929;50.810;8.342;2023-03-03T10:30:30;2.40;99.90
5806;DHT22;2929;50.810;8.342;2023-03-03T10:33:04;2.50;99.90
5806;DHT22;2929;50.810;8.342;2023-03-03T10:35:49;2.60;99.90
5806;DHT22;2929;50.810;8.342;2023-03-03T10:38:43;2.70;99.90
5806;DHT22;2929;50.810;8.342;2023-03-03T10:41:28;2.80;99.90
5806;DHT22;2929;50.810;8.342;2023-03-03T10:44:14;3.10;99.90
5806;DHT22;2929;50.810;8.342;2023-03-03T10:47:04;3.40;99.90
5806;DHT22;2929;50.810;8.342;2023-03-03T10:49:53;4.10;99.90
5806;DHT22;2929;50.810;8.342;2023-03-03T10:52:30;4.40;99.90
5806;DHT22;2929;50.810;8.342;2023-03-03T10:55:34;4.60;99.90
5806;DHT22;2929;50.810;8.342;2023-03-03T10:58:11;4.70;99.90
5806;DHT22;2929;50.810;8.342;2023-03-03T11:00:43;4.80;99.90
5806;DHT22;2929;50.810;8.342;2023-03-03T11:06:14;5.20;99.90
5806;DHT22;2929;50.810;8.342;2023-03-03T11:08:47;5.50;99.90
5806;DHT22;2929;50.810;8.342;2023-03-03T11:11:19;5.90;99.90
5806;DHT22;2929;50.810;8.342;2023-03-03T11:13:55;6.00;99.90
5806;DHT22;2929;50.810;8.342;2023-03-03T11:16:39;6.20;99.90
5806;DHT22;2929;50.810;8.342;2023-03-03T11:19:24;6.30;99.90
5806;DHT22;2929;50.810;8.342;2023-03-03T11:22:07;6.60;99.90
5806;DHT22;2929;50.810;8.342;2023-03-03T11:24:48;7.10;99.90
5806;DHT22;2929;50.810;8.342;2023-03-03T11:30:23;7.10;99.90
5806;DHT22;2929;50.810;8.342;2023-03-03T11:33:01;7.30;99.90
5806;DHT22;2929;50.810;8.342;2023-03-03T11:35:37;7.30;99.90
5806;DHT22;2929;50.810;8.342;2023-03-03T11:38:35;7.70;99.90
5806;DHT22;2929;50.810;8.342;2023-03-03T11:41:10;7.50;99.90
5806;DHT22;2929;50.810;8.342;2023-03-03T11:43:43;7.30;99.90
5806;DHT22;2929;50.810;8.342;2023-03-03T11:46:15;7.50;99.90
5806;DHT22;2929;50.810;8.342;2023-03-03T11:48:46;7.60;99.90
5806;DHT22;2929;50.810;8.342;2023-03-03T11:51:22;7.80;99.90
5806;DHT22;2929;50.810;8.342;2023-03-03T11:53:57;7.60;99.90
5806;DHT22;2929;50.810;8.342;2023-03-03T11:56:28;8.00;99.90
5806;DHT22;2929;50.810;8.342;2023-03-03T11:59:06;7.90;99.90
5806;DHT22;2929;50.810;8.342;2023-03-03T12:01:42;7.80;99.90
5806;DHT22;2929;50.810;8.342;2023-03-03T12:04:13;8.00;99.90
5806;DHT22;2929;50.810;8.342;2023-03-03T12:07:00;8.20;99.90
5806;DHT22;2929;50.810;8.342;2023-03-03T12:09:40;8.70;99.90
5806;DHT22;2929;50.810;8.342;2023-03-03T12:12:14;9.30;99.90
5806;DHT22;2929;50.810;8.342;2023-03-03T12:14:54;9.70;99.90
5806;DHT22;2929;50.810;8.342;2023-03-03T12:17:38;9.80;99.60
5806;DHT22;2929;50.810;8.342;2023-03-03T12:20:14;10.10;99.90
5806;DHT22;2929;50.810;8.342;2023-03-03T12:22:54;10.00;99.90
5806;DHT22;2929;50.810;8.342;2023-03-03T12:25:30;10.10;99.20
5806;DHT22;2929;50.810;8.342;2023-03-03T12:28:04;10.40;97.30
5806;DHT22;2929;50.810;8.342;2023-03-03T12:31:05;10.80;94.90
5806;DHT22;2929;50.810;8.342;2023-03-03T12:33:46;11.00;93.40
5806;DHT22;2929;50.810;8.342;2023-03-03T12:36:26;11.20;93.90
5806;DHT22;2929;50.810;8.342;2023-03-03T12:39:02;11.40;92.30
5806;DHT22;2929;50.810;8.342;2023-03-03T12:41:41;11.80;92.50
5806;DHT22;2929;50.810;8.342;2023-03-03T12:44:17;11.50;90.80
5806;DHT22;2929;50.810;8.342;2023-03-03T12:46:55;11.90;90.00
5806;DHT22;2929;50.810;8.342;2023-03-03T12:49:30;12.40;90.60
5806;DHT22;2929;50.810;8.342;2023-03-03T12:52:08;12.30;91.60
5806;DHT22;2929;50.810;8.342;2023-03-03T12:54:49;12.20;88.30
5806;DHT22;2929;50.810;8.342;2023-03-03T12:57:26;12.80;87.70
5806;DHT22;2929;50.810;8.342;2023-03-03T13:00:10;14.00;84.20
5806;DHT22;2929;50.810;8.342;2023-03-03T13:02:46;14.30;81.00
5806;DHT22;2929;50.810;8.342;2023-03-03T13:05:20;14.70;76.00
5806;DHT22;2929;50.810;8.342;2023-03-03T13:07:58;14.20;78.90
5806;DHT22;2929;50.810;8.342;2023-03-03T13:10:34;13.70;79.40
5806;DHT22;2929;50.810;8.342;2023-03-03T13:13:10;13.70;79.50
5806;DHT22;2929;50.810;8.342;2023-03-03T13:15:43;13.60;80.10
5806;DHT22;2929;50.810;8.342;2023-03-03T13:18:24;13.90;82.00
5806;DHT22;2929;50.810;8.342;2023-03-03T13:20:57;13.10;80.20
5806;DHT22;2929;50.810;8.342;2023-03-03T13:23:41;13.30;82.70
5806;DHT22;2929;50.810;8.342;2023-03-03T13:26:14;13.40;80.90
5806;DHT22;2929;50.810;8.342;2023-03-03T13:28:57;13.30;80.80
5806;DHT22;2929;50.810;8.342;2023-03-03T13:31:30;13.30;80.60
5806;DHT22;2929;50.810;8.342;2023-03-03T13:33:59;14.10;79.20
5806;DHT22;2929;50.810;8.342;2023-03-03T13:36:30;13.70;77.00
5806;DHT22;2929;50.810;8.342;2023-03-03T13:39:03;13.40;79.40
5806;DHT22;2929;50.810;8.342;2023-03-03T13:41:41;13.30;80.80
5806;DHT22;2929;50.810;8.342;2023-03-03T13:44:17;13.10;78.10
5806;DHT22;2929;50.810;8.342;2023-03-03T13:46:56;13.50;78.80
5806;DHT22;2929;50.810;8.342;2023-03-03T13:49:35;13.90;77.50
5806;DHT22;2929;50.810;8.342;2023-03-03T13:52:07;13.60;79.50
5806;DHT22;2929;50.810;8.342;2023-03-03T13:54:47;13.70;77.90
5806;DHT22;2929;50.810;8.342;2023-03-03T13:57:32;13.40;80.40
5806;DHT22;2929;50.810;8.342;2023-03-03T14:00:15;13.30;83.20
5806;DHT22;2929;50.810;8.342;2023-03-03T14:02:59;13.10;80.50
5806;DHT22;2929;50.810;8.342;2023-03-03T14:05:36;13.40;80.20
5806;DHT22;2929;50.810;8.342;2023-03-03T14:08:11;13.50;77.80
5806;DHT22;2929;50.810;8.342;2023-03-03T14:10:43;13.60;79.00
5806;DHT22;2929;50.810;8.342;2023-03-03T14:13:18;13.80;79.40
5806;DHT22;2929;50.810;8.342;2023-03-03T14:15:54;14.00;78.00
5806;DHT22;2929;50.810;8.342;2023-03-03T14:18:28;14.00;78.10
5806;DHT22;2929;50.810;8.342;2023-03-03T14:21:02;13.70;77.60
5806;DHT22;2929;50.810;8.342;2023-03-03T14:23:45;13.90;78.90
5806;DHT22;2929;50.810;8.342;2023-03-03T14:26:13;13.30;78.80
5806;DHT22;2929;50.810;8.342;2023-03-03T14:28:41;13.10;83.30
5806;DHT22;2929;50.810;8.342;2023-03-03T14:31:27;13.70;80.80
5806;DHT22;2929;50.810;8.342;2023-03-03T14:34:00;13.60;80.70
5806;DHT22;2929;50.810;8.342;2023-03-03T14:36:31;13.50;81.00
5806;DHT22;2929;50.810;8.342;2023-03-03T14:38:59;14.10;80.80
5806;DHT22;2929;50.810;8.342;2023-03-03T14:41:39;14.20;76.90
5806;DHT22;2929;50.810;8.342;2023-03-03T14:44:27;15.10;79.10
5806;DHT22;2929;50.810;8.342;2023-03-03T14:47:19;15.00;75.60
5806;DHT22;2929;50.810;8.342;2023-03-03T14:49:47;14.90;76.90
5806;DHT22;2929;50.810;8.342;2023-03-03T14:52:21;15.30;75.00
5806;DHT22;2929;50.810;8.342;2023-03-03T14:54:51;15.80;73.70
5806;DHT22;2929;50.810;8.342;2023-03-03T14:57:20;16.50;70.90
5806;DHT22;2929;50.810;8.342;2023-03-03T14:59:56;17.10;68.60
5806;DHT22;2929;50.810;8.342;2023-03-03T15:02:31;16.00;68.50
5806;DHT22;2929;50.810;8.342;2023-03-03T15:05:21;16.10;69.60
5806;DHT22;2929;50.810;8.342;2023-03-03T15:07:54;16.70;67.20
5806;DHT22;2929;50.810;8.342;2023-03-03T15:10:29;17.90;65.40
5806;DHT22;2929;50.810;8.342;2023-03-03T15:12:56;17.40;63.20
5806;DHT22;2929;50.810;8.342;2023-03-03T15:15:24;16.70;64.90
5806;DHT22;2929;50.810;8.342;2023-03-03T15:18:00;15.40;67.90
5806;DHT22;2929;50.810;8.342;2023-03-03T15:20:38;16.30;67.80
5806;DHT22;2929;50.810;8.342;2023-03-03T15:23:22;16.30;65.40
5806;DHT22;2929;50.810;8.342;2023-03-03T15:25:58;18.00;63.30
5806;DHT22;2929;50.810;8.342;2023-03-03T15:28:54;17.30;61.10
5806;DHT22;2929;50.810;8.342;2023-03-03T15:31:30;17.40;61.00
5806;DHT22;2929;50.810;8.342;2023-03-03T15:34:11;16.80;63.60
5806;DHT22;2929;50.810;8.342;2023-03-03T15:36:50;17.30;61.70
5806;DHT22;2929;50.810;8.342;2023-03-03T15:39:24;17.70;60.60
5806;DHT22;2929;50.810;8.342;2023-03-03T15:42:01;17.20;61.50
5806;DHT22;2929;50.810;8.342;2023-03-03T15:44:47;17.20;61.30
5806;DHT22;2929;50.810;8.342;2023-03-03T15:47:33;17.90;60.90
5806;DHT22;2929;50.810;8.342;2023-03-03T15:50:27;16.20;64.00
5806;DHT22;2929;50.810;8.342;2023-03-03T15:53:04;15.40;65.10
5806;DHT22;2929;50.810;8.342;2023-03-03T15:55:45;15.90;65.60
5806;DHT22;2929;50.810;8.342;2023-03-03T16:01:17;15.20;66.70
5806;DHT22;2929;50.810;8.342;2023-03-03T16:03:53;16.00;66.10
5806;DHT22;2929;50.810;8.342;2023-03-03T16:06:39;14.80;66.10
5806;DHT22;2929;50.810;8.342;2023-03-03T16:09:17;14.30;69.40
5806;DHT22;2929;50.810;8.342;2023-03-03T16:11:48;14.20;70.50
5806;DHT22;2929;50.810;8.342;2023-03-03T16:17:22;13.80;71.80
5806;DHT22;2929;50.810;8.342;2023-03-03T16:19:59;14.00;72.20
5806;DHT22;2929;50.810;8.342;2023-03-03T16:22:45;13.80;72.40
5806;DHT22;2929;50.810;8.342;2023-03-03T16:25:25;13.30;73.40
5806;DHT22;2929;50.810;8.342;2023-03-03T16:28:00;13.10;74.50
5806;DHT22;2929;50.810;8.342;2023-03-03T16:30:33;12.40;76.80
5806;DHT22;2929;50.810;8.342;2023-03-03T16:33:18;11.90;79.20
5806;DHT22;2929;50.810;8.342;2023-03-03T16:35:52;10.90;82.20
5806;DHT22;2929;50.810;8.342;2023-03-03T16:38:27;10.50;85.60
5806;DHT22;2929;50.810;8.342;2023-03-03T16:40:59;9.90;90.00
5806;DHT22;2929;50.810;8.342;2023-03-03T16:43:35;9.40;91.90
5806;DHT22;2929;50.810;8.342;2023-03-03T16:46:25;9.10;92.80
5806;DHT22;2929;50.810;8.342;2023-03-03T16:49:01;9.00;93.60
5806;DHT22;2929;50.810;8.342;2023-03-03T16:51:38;8.90;93.70
5806;DHT22;2929;50.810;8.342;2023-03-03T16:54:13;8.70;94.90
5806;DHT22;2929;50.810;8.342;2023-03-03T16:56:45;8.30;96.40
5806;DHT22;2929;50.810;8.342;2023-03-03T17:02:11;7.80;98.80
5806;DHT22;2929;50.810;8.342;2023-03-03T17:04:44;7.60;99.90
5806;DHT22;2929;50.810;8.342;2023-03-03T17:07:27;7.50;99.90
5806;DHT22;2929;50.810;8.342;2023-03-03T17:10:11;7.40;99.90
5806;DHT22;2929;50.810;8.342;2023-03-03T17:13:06;7.20;99.90
5806;DHT22;2929;50.810;8.342;2023-03-03T17:15:41;6.80;99.90
5806;DHT22;2929;50.810;8.342;2023-03-03T17:18:13;6.60;99.90
5806;DHT22;2929;50.810;8.342;2023-03-03T17:20:46;6.40;99.90
5806;DHT22;2929;50.810;8.342;2023-03-03T17:23:40;6.20;99.90
5806;DHT22;2929;50.810;8.342;2023-03-03T17:26:27;5.70;99.90
5806;DHT22;2929;50.810;8.342;2023-03-03T17:29:05;5.60;99.90
5806;DHT22;2929;50.810;8.342;2023-03-03T17:31:40;5.60;99.90
5806;DHT22;2929;50.810;8.342;2023-03-03T17:34:22;5.50;99.90
5806;DHT22;2929;50.810;8.342;2023-03-03T17:37:02;5.30;99.90
5806;DHT22;2929;50.810;8.342;2023-03-03T17:39:49;5.20;99.90
5806;DHT22;2929;50.810;8.342;2023-03-03T17:42:28;5.20;99.90
5806;DHT22;2929;50.810;8.342;2023-03-03T17:45:03;5.20;99.90
5806;DHT22;2929;50.810;8.342;2023-03-03T17:47:52;5.00;99.90
5806;DHT22;2929;50.810;8.342;2023-03-03T17:50:31;4.90;99.90
5806;DHT22;2929;50.810;8.342;2023-03-03T17:56:10;4.60;99.90
5806;DHT22;2929;50.810;8.342;2023-03-03T17:59:03;4.50;99.90
5806;DHT22;2929;50.810;8.342;2023-03-03T18:02:00;4.40;99.90
5806;DHT22;2929;50.810;8.342;2023-03-03T18:04:50;4.20;99.90
5806;DHT22;2929;50.810;8.342;2023-03-03T18:07:40;4.20;99.90
5806;DHT22;2929;50.810;8.342;2023-03-03T18:10:45;4.00;99.90
5806;DHT22;2929;50.810;8.342;2023-03-03T18:13:31;3.90;99.90
5806;DHT22;2929;50.810;8.342;2023-03-03T18:16:12;3.80;99.90
5806;DHT22;2929;50.810;8.342;2023-03-03T18:18:54;3.70;99.90
5806;DHT22;2929;50.810;8.342;2023-03-03T18:21:26;3.40;99.90
5806;DHT22;2929;50.810;8.342;2023-03-03T18:24:25;3.40;99.90
5806;DHT22;2929;50.810;8.342;2023-03-03T18:26:53;3.50;99.90
5806;DHT22;2929;50.810;8.342;2023-03-03T18:29:23;3.30;99.90
5806;DHT22;2929;50.810;8.342;2023-03-03T18:32:18;3.20;99.90
5806;DHT22;2929;50.810;8.342;2023-03-03T18:34:47;3.00;99.90
5806;DHT22;2929;50.810;8.342;2023-03-03T18:37:39;3.00;99.90
5806;DHT22;2929;50.810;8.342;2023-03-03T18:42:48;2.70;99.90
5806;DHT22;2929;50.810;8.342;2023-03-03T18:45:46;2.60;99.90
5806;DHT22;2929;50.810;8.342;2023-03-03T18:48:16;2.20;99.90
5806;DHT22;2929;50.810;8.342;2023-03-03T18:50:46;2.10;99.90
5806;DHT22;2929;50.810;8.342;2023-03-03T18:53:20;2.20;99.90
5806;DHT22;2929;50.810;8.342;2023-03-03T18:55:49;2.30;99.90
5806;DHT22;2929;50.810;8.342;2023-03-03T18:58:32;2.30;99.90
5806;DHT22;2929;50.810;8.342;2023-03-03T19:01:11;2.30;99.90
5806;DHT22;2929;50.810;8.342;2023-03-03T19:06:55;2.20;99.90
5806;DHT22;2929;50.810;8.342;2023-03-03T19:09:52;2.10;99.90